sensor_id;sensor_type;location;lat;lon;timestamp;temperature;humidity
11221;DHT22;8517;53.546;10.104;2024-03-07T00:01:04;6.30;99.90
11221;DHT22;8517;53.546;10.104;2024-03-07T00:03:33;6.30;99.90
11221;DHT22;8517;53.546;10.104;2024-03-07T00:06:00;6.40;99.90
11221;DHT22;8517;53.546;10.104;2024-03-07T00:08:28;6.40;99.90
11221;DHT22;8517;53.546;10.104;2024-03-07T00:10:56;6.40;99.90
11221;DHT22;8517;53.546;10.104;2024-03-07T00:13:22;6.50;99.90
11221;DHT22;8517;53.546;10.104;2024-03-07T00:15:49;6.50;99.90
11221;DHT22;8517;53.546;10.104;2024-03-07T00:18:16;6.60;99.90
11221;DHT22;8517;53.546;10.104;2024-03-07T00:20:44;6.60;99.90
11221;DHT22;8517;53.546;10.104;2024-03-07T00:23:11;6.60;99.90
11221;DHT22;8517;53.546;10.104;2024-03-07T00:25:38;6.70;99.90
11221;DHT22;8517;53.546;10.104;2024-03-07T00:28:05;6.70;99.90
11221;DHT22;8517;53.546;10.104;2024-03-07T00:30:32;6.70;99.90
11221;DHT22;8517;53.546;10.104;2024-03-07T00:32:59;6.80;99.90
11221;DHT22;8517;53.546;10.104;2024-03-07T00:35:26;6.80;99.90
11221;DHT22;8517;53.546;10.104;2024-03-07T00:37:54;6.80;99.90
11221;DHT22;8517;53.546;10.104;2024-03-07T00:40:22;6.90;99.90
11221;DHT22;8517;53.546;10.104;2024-03-07T00:42:48;6.90;99.90
11221;DHT22;8517;53.546;10.104;2024-03-07T00:45:16;7.00;99.90
11221;DHT22;8517;53.546;10.104;2024-03-07T00:47:43;7.00;99.90
11221;DHT22;8517;53.546;10.104;2024-03-07T00:50:10;7.00;99.90
11221;DHT22;8517;53.546;10.104;2024-03-07T00:52:37;7.10;99.90
11221;DHT22;8517;53.546;10.104;2024-03-07T00:55:07;7.20;99.90
11221;DHT22;8517;53.546;10.104;2024-03-07T00:57:34;7.20;99.90
11221;DHT22;8517;53.546;10.104;2024-03-07T01:00:01;7.20;99.90
11221;DHT22;8517;53.546;10.104;2024-03-07T01:02:28;7.20;99.90
11221;DHT22;8517;53.546;10.104;2024-03-07T01:04:55;7.20;99.90
11221;DHT22;8517;53.546;10.104;2024-03-07T01:07:22;7.30;99.90
11221;DHT22;8517;53.546;10.104;2024-03-07T01:09:49;7.30;99.90
11221;DHT22;8517;53.546;10.104;2024-03-07T01:12:17;7.40;99.90
11221;DHT22;8517;53.546;10.104;2024-03-07T01:14:45;7.40;99.90
11221;DHT22;8517;53.546;10.104;2024-03-07T01:17:12;7.40;99.90
11221;DHT22;8517;53.546;10.104;2024-03-07T01:19:39;7.40;99.90
11221;DHT22;8517;53.546;10.104;2024-03-07T01:22:06;7.50;99.90
11221;DHT22;8517;53.546;10.104;2024-03-07T01:24:34;7.50;99.90
11221;DHT22;8517;53.546;10.104;2024-03-07T01:27:03;7.50;99.90
11221;DHT22;8517;53.546;10.104;2024-03-07T01:29:34;7.50;99.90
11221;DHT22;8517;53.546;10.104;2024-03-07T01:32:01;7.50;99.90
11221;DHT22;8517;53.546;10.104;2024-03-07T01:34:28;7.60;99.90
11221;DHT22;8517;53.546;10.104;2024-03-07T01:36:55;7.60;99.90
11221;DHT22;8517;53.546;10.104;2024-03-07T01:39:22;7.60;99.90
11221;DHT22;8517;53.546;10.104;2024-03-07T01:41:49;7.60;99.90
11221;DHT22;8517;53.546;10.104;2024-03-07T01:44:16;7.60;99.90
11221;DHT22;8517;53.546;10.104;2024-03-07T01:46:44;7.60;99.90
11221;DHT22;8517;53.546;10.104;2024-03-07T01:49:12;7.60;99.90
11221;DHT22;8517;53.546;10.104;2024-03-07T01:51:39;7.60;99.90
11221;DHT22;8517;53.546;10.104;2024-03-07T01:54:08;7.60;99.90
11221;DHT22;8517;53.546;10.104;2024-03-07T01:56:35;7.60;99.90
11221;DHT22;8517;53.546;10.104;2024-03-07T01:59:03;7.60;99.90
11221;DHT22;8517;53.546;10.104;2024-03-07T02:01:33;7.70;99.90
11221;DHT22;8517;53.546;10.104;2024-03-07T02:04:03;7.70;99.90
11221;DHT22;8517;53.546;10.104;2024-03-07T02:06:30;7.70;99.90
11221;DHT22;8517;53.546;10.104;2024-03-07T02:08:56;7.80;99.90
11221;DHT22;8517;53.546;10.104;2024-03-07T02:11:23;7.80;99.90
11221;DHT22;8517;53.546;10.104;2024-03-07T02:13:50;7.80;99.90
11221;DHT22;8517;53.546;10.104;2024-03-07T02:16:17;7.80;99.90
11221;DHT22;8517;53.546;10.104;2024-03-07T02:18:44;7.80;99.90
11221;DHT22;8517;53.546;10.104;2024-03-07T02:21:12;7.70;99.90
11221;DHT22;8517;53.546;10.104;2024-03-07T02:23:39;7.80;99.90
11221;DHT22;8517;53.546;10.104;2024-03-07T02:26:06;7.80;99.90
11221;DHT22;8517;53.546;10.104;2024-03-07T02:28:33;7.80;99.90
11221;DHT22;8517;53.546;10.104;2024-03-07T02:31:00;7.80;99.90
11221;DHT22;8517;53.546;10.104;2024-03-07T02:33:27;7.80;99.90
11221;DHT22;8517;53.546;10.104;2024-03-07T02:35:57;7.80;99.90
11221;DHT22;8517;53.546;10.104;2024-03-07T02:38:25;7.80;99.90
11221;DHT22;8517;53.546;10.104;2024-03-07T02:40:52;7.80;99.90
11221;DHT22;8517;53.546;10.104;2024-03-07T02:43:19;7.80;99.90
11221;DHT22;8517;53.546;10.104;2024-03-07T02:45:46;7.80;99.90
11221;DHT22;8517;53.546;10.104;2024-03-07T02:48:15;7.90;99.90
11221;DHT22;8517;53.546;10.104;2024-03-07T02:50:44;7.90;99.90
11221;DHT22;8517;53.546;10.104;2024-03-07T02:53:10;7.90;99.90
11221;DHT22;8517;53.546;10.104;2024-03-07T02:55:39;7.80;99.90
11221;DHT22;8517;53.546;10.104;2024-03-07T02:58:06;7.80;99.90
11221;DHT22;8517;53.546;10.104;2024-03-07T03:00:33;7.80;99.90
11221;DHT22;8517;53.546;10.104;2024-03-07T03:03:00;7.80;99.90
11221;DHT22;8517;53.546;10.104;2024-03-07T03:05:27;7.80;99.90
11221;DHT22;8517;53.546;10.104;2024-03-07T03:07:54;7.80;99.90
11221;DHT22;8517;53.546;10.104;2024-03-07T03:10:21;7.80;99.90
11221;DHT22;8517;53.546;10.104;2024-03-07T03:12:53;7.80;99.90
11221;DHT22;8517;53.546;10.104;2024-03-07T03:15:20;7.80;99.90
11221;DHT22;8517;53.546;10.104;2024-03-07T03:17:47;7.80;99.90
11221;DHT22;8517;53.546;10.104;2024-03-07T03:20:14;7.80;99.90
11221;DHT22;8517;53.546;10.104;2024-03-07T03:22:51;7.80;99.90
11221;DHT22;8517;53.546;10.104;2024-03-07T03:25:19;7.80;99.90
11221;DHT22;8517;53.546;10.104;2024-03-07T03:27:46;7.80;99.90
11221;DHT22;8517;53.546;10.104;2024-03-07T03:30:14;7.80;99.90
11221;DHT22;8517;53.546;10.104;2024-03-07T03:32:44;7.70;99.90
11221;DHT22;8517;53.546;10.104;2024-03-07T03:35:11;7.70;99.90
11221;DHT22;8517;53.546;10.104;2024-03-07T03:37:39;7.70;99.90
11221;DHT22;8517;53.546;10.104;2024-03-07T03:40:08;7.70;99.90
11221;DHT22;8517;53.546;10.104;2024-03-07T03:42:36;7.60;99.90
11221;DHT22;8517;53.546;10.104;2024-03-07T03:45:04;7.60;99.90
11221;DHT22;8517;53.546;10.104;2024-03-07T03:47:33;7.60;99.90
11221;DHT22;8517;53.546;10.104;2024-03-07T03:50:02;7.60;99.90
11221;DHT22;8517;53.546;10.104;2024-03-07T03:52:29;7.60;99.90
11221;DHT22;8517;53.546;10.104;2024-03-07T03:54:56;7.50;99.90
11221;DHT22;8517;53.546;10.104;2024-03-07T03:57:24;7.60;99.90
11221;DHT22;8517;53.546;10.104;2024-03-07T03:59:50;7.50;99.90
11221;DHT22;8517;53.546;10.104;2024-03-07T04:02:17;7.50;99.90
11221;DHT22;8517;53.546;10.104;2024-03-07T04:04:45;7.50;99.90
11221;DHT22;8517;53.546;10.104;2024-03-07T04:07:12;7.40;99.90
11221;DHT22;8517;53.546;10.104;2024-03-07T04:09:39;7.40;99.90
11221;DHT22;8517;53.546;10.104;2024-03-07T04:12:06;7.40;99.90
11221;DHT22;8517;53.546;10.104;2024-03-07T04:14:36;7.40;99.90
11221;DHT22;8517;53.546;10.104;2024-03-07T04:17:03;7.40;99.90
11221;DHT22;8517;53.546;10.104;2024-03-07T04:19:32;7.40;99.90
11221;DHT22;8517;53.546;10.104;2024-03-07T04:22:01;7.40;99.90
11221;DHT22;8517;53.546;10.104;2024-03-07T04:24:29;7.30;99.90
11221;DHT22;8517;53.546;10.104;2024-03-07T04:26:57;7.30;99.90
11221;DHT22;8517;53.546;10.104;2024-03-07T04:29:23;7.30;99.90
11221;DHT22;8517;53.546;10.104;2024-03-07T04:31:51;7.20;99.90
11221;DHT22;8517;53.546;10.104;2024-03-07T04:34:18;7.10;99.90
11221;DHT22;8517;53.546;10.104;2024-03-07T04:36:45;7.10;99.90
11221;DHT22;8517;53.546;10.104;2024-03-07T04:39:13;7.10;99.90
11221;DHT22;8517;53.546;10.104;2024-03-07T04:41:50;7.10;99.90
11221;DHT22;8517;53.546;10.104;2024-03-07T04:44:18;7.10;99.90
11221;DHT22;8517;53.546;10.104;2024-03-07T04:46:44;7.00;99.90
11221;DHT22;8517;53.546;10.104;2024-03-07T04:49:11;7.00;99.90
11221;DHT22;8517;53.546;10.104;2024-03-07T04:51:39;6.90;99.90
11221;DHT22;8517;53.546;10.104;2024-03-07T04:54:05;6.90;99.90
11221;DHT22;8517;53.546;10.104;2024-03-07T04:56:34;6.90;99.90
11221;DHT22;8517;53.546;10.104;2024-03-07T04:59:00;6.90;99.90
11221;DHT22;8517;53.546;10.104;2024-03-07T05:01:28;6.90;99.90
11221;DHT22;8517;53.546;10.104;2024-03-07T05:03:56;6.90;99.90
11221;DHT22;8517;53.546;10.104;2024-03-07T05:06:23;6.80;99.90
11221;DHT22;8517;53.546;10.104;2024-03-07T05:08:50;6.80;99.90
11221;DHT22;8517;53.546;10.104;2024-03-07T05:11:16;6.70;99.90
11221;DHT22;8517;53.546;10.104;2024-03-07T05:13:45;6.70;99.90
11221;DHT22;8517;53.546;10.104;2024-03-07T05:16:11;6.60;99.90
11221;DHT22;8517;53.546;10.104;2024-03-07T05:18:38;6.60;99.90
11221;DHT22;8517;53.546;10.104;2024-03-07T05:21:06;6.60;99.90
11221;DHT22;8517;53.546;10.104;2024-03-07T05:23:46;6.50;99.90
11221;DHT22;8517;53.546;10.104;2024-03-07T05:26:14;6.50;99.90
11221;DHT22;8517;53.546;10.104;2024-03-07T05:28:41;6.50;99.90
11221;DHT22;8517;53.546;10.104;2024-03-07T05:31:09;6.50;99.90
11221;DHT22;8517;53.546;10.104;2024-03-07T05:33:37;6.40;99.90
11221;DHT22;8517;53.546;10.104;2024-03-07T05:36:06;6.40;99.90
11221;DHT22;8517;53.546;10.104;2024-03-07T05:38:40;6.40;99.90
11221;DHT22;8517;53.546;10.104;2024-03-07T05:41:08;6.40;99.90
11221;DHT22;8517;53.546;10.104;2024-03-07T05:43:36;6.40;99.90
11221;DHT22;8517;53.546;10.104;2024-03-07T05:46:03;6.40;99.90
11221;DHT22;8517;53.546;10.104;2024-03-07T05:48:33;6.30;99.90
11221;DHT22;8517;53.546;10.104;2024-03-07T05:51:00;6.30;99.90
11221;DHT22;8517;53.546;10.104;2024-03-07T05:53:26;6.30;99.90
11221;DHT22;8517;53.546;10.104;2024-03-07T05:55:53;6.30;99.90
11221;DHT22;8517;53.546;10.104;2024-03-07T05:58:20;6.30;99.90
11221;DHT22;8517;53.546;10.104;2024-03-07T06:00:47;6.20;99.90
11221;DHT22;8517;53.546;10.104;2024-03-07T06:03:16;6.20;99.90
11221;DHT22;8517;53.546;10.104;2024-03-07T06:05:44;6.20;99.90
11221;DHT22;8517;53.546;10.104;2024-03-07T06:08:14;6.20;99.90
11221;DHT22;8517;53.546;10.104;2024-03-07T06:10:43;6.10;99.90
11221;DHT22;8517;53.546;10.104;2024-03-07T06:13:10;6.10;99.90
11221;DHT22;8517;53.546;10.104;2024-03-07T06:15:38;6.10;99.90
11221;DHT22;8517;53.546;10.104;2024-03-07T06:18:05;6.10;99.90
11221;DHT22;8517;53.546;10.104;2024-03-07T06:20:33;6.10;99.90
11221;DHT22;8517;53.546;10.104;2024-03-07T06:23:03;6.10;99.90
11221;DHT22;8517;53.546;10.104;2024-03-07T06:25:30;6.10;99.90
11221;DHT22;8517;53.546;10.104;2024-03-07T06:28:03;6.10;99.90
11221;DHT22;8517;53.546;10.104;2024-03-07T06:30:35;6.10;99.90
11221;DHT22;8517;53.546;10.104;2024-03-07T06:33:03;6.10;99.90
11221;DHT22;8517;53.546;10.104;2024-03-07T06:35:30;6.10;99.90
11221;DHT22;8517;53.546;10.104;2024-03-07T06:37:57;6.10;99.90
11221;DHT22;8517;53.546;10.104;2024-03-07T06:40:25;6.00;99.90
11221;DHT22;8517;53.546;10.104;2024-03-07T06:42:52;6.00;99.90
11221;DHT22;8517;53.546;10.104;2024-03-07T06:45:21;6.00;99.90
11221;DHT22;8517;53.546;10.104;2024-03-07T06:47:49;6.00;99.90
11221;DHT22;8517;53.546;10.104;2024-03-07T06:50:18;6.00;99.90
11221;DHT22;8517;53.546;10.104;2024-03-07T06:52:46;6.00;99.90
11221;DHT22;8517;53.546;10.104;2024-03-07T06:55:14;6.00;99.90
11221;DHT22;8517;53.546;10.104;2024-03-07T06:57:48;5.90;99.90
11221;DHT22;8517;53.546;10.104;2024-03-07T07:00:16;5.90;99.90
11221;DHT22;8517;53.546;10.104;2024-03-07T07:02:48;5.90;99.90
11221;DHT22;8517;53.546;10.104;2024-03-07T07:05:17;5.80;99.90
11221;DHT22;8517;53.546;10.104;2024-03-07T07:07:53;5.80;99.90
11221;DHT22;8517;53.546;10.104;2024-03-07T07:10:20;5.70;99.90
11221;DHT22;8517;53.546;10.104;2024-03-07T07:12:51;5.80;99.90
11221;DHT22;8517;53.546;10.104;2024-03-07T07:15:20;5.80;99.90
11221;DHT22;8517;53.546;10.104;2024-03-07T07:17:48;5.80;99.90
11221;DHT22;8517;53.546;10.104;2024-03-07T07:20:15;5.80;99.90
11221;DHT22;8517;53.546;10.104;2024-03-07T07:22:44;5.80;99.90
11221;DHT22;8517;53.546;10.104;2024-03-07T07:25:12;5.80;99.90
11221;DHT22;8517;53.546;10.104;2024-03-07T07:27:45;5.80;99.90
11221;DHT22;8517;53.546;10.104;2024-03-07T07:30:15;5.90;99.90
11221;DHT22;8517;53.546;10.104;2024-03-07T07:32:43;5.90;99.90
11221;DHT22;8517;53.546;10.104;2024-03-07T07:35:11;5.90;99.90
11221;DHT22;8517;53.546;10.104;2024-03-07T07:37:38;5.90;99.90
11221;DHT22;8517;53.546;10.104;2024-03-07T07:40:06;5.90;99.90
11221;DHT22;8517;53.546;10.104;2024-03-07T07:42:35;5.90;99.90
11221;DHT22;8517;53.546;10.104;2024-03-07T07:45:05;5.90;99.90
11221;DHT22;8517;53.546;10.104;2024-03-07T07:47:34;5.90;99.90
11221;DHT22;8517;53.546;10.104;2024-03-07T07:50:03;5.90;99.90
11221;DHT22;8517;53.546;10.104;2024-03-07T07:52:32;5.80;99.90
11221;DHT22;8517;53.546;10.104;2024-03-07T07:55:00;5.90;99.90
11221;DHT22;8517;53.546;10.104;2024-03-07T07:57:27;5.80;99.90
11221;DHT22;8517;53.546;10.104;2024-03-07T07:59:54;5.80;99.90
11221;DHT22;8517;53.546;10.104;2024-03-07T08:02:21;5.80;99.90
11221;DHT22;8517;53.546;10.104;2024-03-07T08:04:49;5.70;99.90
11221;DHT22;8517;53.546;10.104;2024-03-07T08:07:16;5.70;99.90
11221;DHT22;8517;53.546;10.104;2024-03-07T08:09:44;5.80;99.90
11221;DHT22;8517;53.546;10.104;2024-03-07T08:12:11;5.80;99.90
11221;DHT22;8517;53.546;10.104;2024-03-07T08:14:38;5.80;99.90
11221;DHT22;8517;53.546;10.104;2024-03-07T08:17:05;5.80;99.90
11221;DHT22;8517;53.546;10.104;2024-03-07T08:19:32;5.80;99.90
11221;DHT22;8517;53.546;10.104;2024-03-07T08:22:00;5.80;99.90
11221;DHT22;8517;53.546;10.104;2024-03-07T08:24:28;5.80;99.90
11221;DHT22;8517;53.546;10.104;2024-03-07T08:26:55;5.80;99.90
11221;DHT22;8517;53.546;10.104;2024-03-07T08:29:22;5.80;99.90
11221;DHT22;8517;53.546;10.104;2024-03-07T08:31:49;5.80;99.90
11221;DHT22;8517;53.546;10.104;2024-03-07T08:34:17;5.90;99.90
11221;DHT22;8517;53.546;10.104;2024-03-07T08:36:46;5.80;99.90
11221;DHT22;8517;53.546;10.104;2024-03-07T08:39:17;5.90;99.90
11221;DHT22;8517;53.546;10.104;2024-03-07T08:41:45;5.90;99.90
11221;DHT22;8517;53.546;10.104;2024-03-07T08:44:12;5.90;99.90
11221;DHT22;8517;53.546;10.104;2024-03-07T08:46:39;6.00;99.90
11221;DHT22;8517;53.546;10.104;2024-03-07T08:49:09;6.00;99.90
11221;DHT22;8517;53.546;10.104;2024-03-07T08:51:38;6.10;99.90
11221;DHT22;8517;53.546;10.104;2024-03-07T08:54:05;6.10;99.90
11221;DHT22;8517;53.546;10.104;2024-03-07T08:56:33;6.20;99.90
11221;DHT22;8517;53.546;10.104;2024-03-07T08:59:00;6.20;99.90
11221;DHT22;8517;53.546;10.104;2024-03-07T09:01:27;6.20;99.90
11221;DHT22;8517;53.546;10.104;2024-03-07T09:03:54;6.20;99.90
11221;DHT22;8517;53.546;10.104;2024-03-07T09:06:23;6.20;99.90
11221;DHT22;8517;53.546;10.104;2024-03-07T09:08:50;6.20;99.90
11221;DHT22;8517;53.546;10.104;2024-03-07T09:11:17;6.30;99.90
11221;DHT22;8517;53.546;10.104;2024-03-07T09:13:45;6.30;99.90
11221;DHT22;8517;53.546;10.104;2024-03-07T09:16:12;6.30;99.90
11221;DHT22;8517;53.546;10.104;2024-03-07T09:18:39;6.30;99.90
11221;DHT22;8517;53.546;10.104;2024-03-07T09:21:06;6.40;99.90
11221;DHT22;8517;53.546;10.104;2024-03-07T09:23:36;6.40;99.90
11221;DHT22;8517;53.546;10.104;2024-03-07T09:26:02;6.30;99.90
11221;DHT22;8517;53.546;10.104;2024-03-07T09:28:32;6.30;99.90
11221;DHT22;8517;53.546;10.104;2024-03-07T09:31:00;6.30;99.90
11221;DHT22;8517;53.546;10.104;2024-03-07T09:33:27;6.30;99.90
11221;DHT22;8517;53.546;10.104;2024-03-07T09:35:54;6.30;99.90
11221;DHT22;8517;53.546;10.104;2024-03-07T09:38:23;6.30;99.90
11221;DHT22;8517;53.546;10.104;2024-03-07T09:40:50;6.30;99.90
11221;DHT22;8517;53.546;10.104;2024-03-07T09:43:17;6.30;99.90
11221;DHT22;8517;53.546;10.104;2024-03-07T09:45:46;6.40;99.90
11221;DHT22;8517;53.546;10.104;2024-03-07T09:48:16;6.30;99.90
11221;DHT22;8517;53.546;10.104;2024-03-07T09:50:43;6.30;99.90
11221;DHT22;8517;53.546;10.104;2024-03-07T09:53:11;6.30;99.90
11221;DHT22;8517;53.546;10.104;2024-03-07T09:55:38;6.40;99.90
11221;DHT22;8517;53.546;10.104;2024-03-07T09:58:05;6.40;99.90
11221;DHT22;8517;53.546;10.104;2024-03-07T10:00:36;6.40;99.90
11221;DHT22;8517;53.546;10.104;2024-03-07T10:03:08;6.40;99.90
11221;DHT22;8517;53.546;10.104;2024-03-07T10:05:37;6.40;99.90
11221;DHT22;8517;53.546;10.104;2024-03-07T10:08:04;6.40;99.90
11221;DHT22;8517;53.546;10.104;2024-03-07T10:10:32;6.40;99.90
11221;DHT22;8517;53.546;10.104;2024-03-07T10:12:59;6.40;99.90
11221;DHT22;8517;53.546;10.104;2024-03-07T10:15:28;6.40;99.90
11221;DHT22;8517;53.546;10.104;2024-03-07T10:17:55;6.50;99.90
11221;DHT22;8517;53.546;10.104;2024-03-07T10:20:22;6.50;99.90
11221;DHT22;8517;53.546;10.104;2024-03-07T10:22:51;6.50;99.90
11221;DHT22;8517;53.546;10.104;2024-03-07T10:25:18;6.60;99.90
11221;DHT22;8517;53.546;10.104;2024-03-07T10:27:47;6.70;99.90
11221;DHT22;8517;53.546;10.104;2024-03-07T10:30:15;6.80;99.90
11221;DHT22;8517;53.546;10.104;2024-03-07T10:32:46;6.90;99.90
11221;DHT22;8517;53.546;10.104;2024-03-07T10:35:13;7.00;99.90
11221;DHT22;8517;53.546;10.104;2024-03-07T10:37:41;7.10;99.90
11221;DHT22;8517;53.546;10.104;2024-03-07T10:40:12;7.20;99.90
11221;DHT22;8517;53.546;10.104;2024-03-07T10:42:45;7.40;99.90
11221;DHT22;8517;53.546;10.104;2024-03-07T10:45:17;7.50;99.90
11221;DHT22;8517;53.546;10.104;2024-03-07T10:47:51;7.70;99.90
11221;DHT22;8517;53.546;10.104;2024-03-07T10:50:23;7.70;99.90
11221;DHT22;8517;53.546;10.104;2024-03-07T10:52:58;7.80;99.90
11221;DHT22;8517;53.546;10.104;2024-03-07T10:55:33;7.90;99.90
11221;DHT22;8517;53.546;10.104;2024-03-07T10:58:04;8.00;99.90
11221;DHT22;8517;53.546;10.104;2024-03-07T11:00:36;8.10;99.90
11221;DHT22;8517;53.546;10.104;2024-03-07T11:03:09;8.10;99.90
11221;DHT22;8517;53.546;10.104;2024-03-07T11:05:37;8.20;99.90
11221;DHT22;8517;53.546;10.104;2024-03-07T11:08:05;8.20;99.90
11221;DHT22;8517;53.546;10.104;2024-03-07T11:10:39;8.20;99.90
11221;DHT22;8517;53.546;10.104;2024-03-07T11:13:08;8.30;99.90
11221;DHT22;8517;53.546;10.104;2024-03-07T11:15:39;8.40;99.90
11221;DHT22;8517;53.546;10.104;2024-03-07T11:18:07;8.40;99.90
11221;DHT22;8517;53.546;10.104;2024-03-07T11:20:37;8.40;99.90
11221;DHT22;8517;53.546;10.104;2024-03-07T11:23:27;8.50;99.90
11221;DHT22;8517;53.546;10.104;2024-03-07T11:26:02;8.40;99.90
11221;DHT22;8517;53.546;10.104;2024-03-07T11:28:33;8.50;99.90
11221;DHT22;8517;53.546;10.104;2024-03-07T11:31:10;8.50;99.90
11221;DHT22;8517;53.546;10.104;2024-03-07T11:33:41;8.50;99.90
11221;DHT22;8517;53.546;10.104;2024-03-07T11:36:42;8.60;99.90
11221;DHT22;8517;53.546;10.104;2024-03-07T11:39:39;8.60;99.90
11221;DHT22;8517;53.546;10.104;2024-03-07T11:42:08;8.60;99.90
11221;DHT22;8517;53.546;10.104;2024-03-07T11:44:35;8.70;99.90
11221;DHT22;8517;53.546;10.104;2024-03-07T11:47:05;8.70;99.90
11221;DHT22;8517;53.546;10.104;2024-03-07T11:49:35;8.70;99.90
11221;DHT22;8517;53.546;10.104;2024-03-07T11:52:02;8.70;99.90
11221;DHT22;8517;53.546;10.104;2024-03-07T11:54:30;8.80;99.90
11221;DHT22;8517;53.546;10.104;2024-03-07T11:56:58;8.70;99.90
11221;DHT22;8517;53.546;10.104;2024-03-07T11:59:26;8.80;99.90
11221;DHT22;8517;53.546;10.104;2024-03-07T12:01:57;8.70;99.90
11221;DHT22;8517;53.546;10.104;2024-03-07T12:04:26;8.80;99.90
11221;DHT22;8517;53.546;10.104;2024-03-07T12:06:53;8.80;99.90
11221;DHT22;8517;53.546;10.104;2024-03-07T12:09:20;8.80;99.90
11221;DHT22;8517;53.546;10.104;2024-03-07T12:11:50;8.80;99.90
11221;DHT22;8517;53.546;10.104;2024-03-07T12:14:18;8.80;99.90
11221;DHT22;8517;53.546;10.104;2024-03-07T12:16:47;8.80;99.90
11221;DHT22;8517;53.546;10.104;2024-03-07T12:19:14;8.80;99.90
11221;DHT22;8517;53.546;10.104;2024-03-07T12:21:43;8.80;99.90
11221;DHT22;8517;53.546;10.104;2024-03-07T12:24:13;8.80;99.90
11221;DHT22;8517;53.546;10.104;2024-03-07T12:26:40;8.80;99.90
11221;DHT22;8517;53.546;10.104;2024-03-07T12:29:08;8.90;99.90
11221;DHT22;8517;53.546;10.104;2024-03-07T12:31:37;8.90;99.90
11221;DHT22;8517;53.546;10.104;2024-03-07T12:34:05;8.90;99.90
11221;DHT22;8517;53.546;10.104;2024-03-07T12:36:35;8.90;99.90
11221;DHT22;8517;53.546;10.104;2024-03-07T12:39:21;9.00;99.90
11221;DHT22;8517;53.546;10.104;2024-03-07T12:41:51;9.00;99.90
11221;DHT22;8517;53.546;10.104;2024-03-07T12:44:19;9.10;99.90
11221;DHT22;8517;53.546;10.104;2024-03-07T12:46:46;9.20;99.90
11221;DHT22;8517;53.546;10.104;2024-03-07T12:49:15;9.20;99.90
11221;DHT22;8517;53.546;10.104;2024-03-07T12:51:42;9.20;99.90
11221;DHT22;8517;53.546;10.104;2024-03-07T12:54:09;9.30;99.90
11221;DHT22;8517;53.546;10.104;2024-03-07T12:56:36;9.30;99.90
11221;DHT22;8517;53.546;10.104;2024-03-07T12:59:05;9.30;99.90
11221;DHT22;8517;53.546;10.104;2024-03-07T13:01:35;9.30;99.90
11221;DHT22;8517;53.546;10.104;2024-03-07T13:04:04;9.30;99.90
11221;DHT22;8517;53.546;10.104;2024-03-07T13:06:34;9.30;99.90
11221;DHT22;8517;53.546;10.104;2024-03-07T13:09:01;9.40;99.90
11221;DHT22;8517;53.546;10.104;2024-03-07T13:11:28;9.40;99.90
11221;DHT22;8517;53.546;10.104;2024-03-07T13:13:57;9.50;99.90
11221;DHT22;8517;53.546;10.104;2024-03-07T13:16:28;9.50;99.90
11221;DHT22;8517;53.546;10.104;2024-03-07T13:18:56;9.50;99.90
11221;DHT22;8517;53.546;10.104;2024-03-07T13:21:23;9.60;99.90
11221;DHT22;8517;53.546;10.104;2024-03-07T13:23:52;9.60;99.90
11221;DHT22;8517;53.546;10.104;2024-03-07T13:26:21;9.70;99.90
11221;DHT22;8517;53.546;10.104;2024-03-07T13:28:50;9.70;99.90
11221;DHT22;8517;53.546;10.104;2024-03-07T13:31:20;9.70;99.90
11221;DHT22;8517;53.546;10.104;2024-03-07T13:33:48;9.70;99.90
11221;DHT22;8517;53.546;10.104;2024-03-07T13:36:20;9.80;99.90
11221;DHT22;8517;53.546;10.104;2024-03-07T13:38:48;9.80;99.90
11221;DHT22;8517;53.546;10.104;2024-03-07T13:41:19;9.90;99.90
11221;DHT22;8517;53.546;10.104;2024-03-07T13:43:46;10.00;99.90
11221;DHT22;8517;53.546;10.104;2024-03-07T13:46:14;10.10;99.90
11221;DHT22;8517;53.546;10.104;2024-03-07T13:48:43;10.30;99.90
11221;DHT22;8517;53.546;10.104;2024-03-07T13:51:12;10.50;99.90
11221;DHT22;8517;53.546;10.104;2024-03-07T13:53:41;10.60;99.90
11221;DHT22;8517;53.546;10.104;2024-03-07T13:56:46;10.70;99.90
11221;DHT22;8517;53.546;10.104;2024-03-07T13:59:31;10.80;99.90
11221;DHT22;8517;53.546;10.104;2024-03-07T14:02:16;10.80;99.90
11221;DHT22;8517;53.546;10.104;2024-03-07T14:05:11;10.80;99.90
11221;DHT22;8517;53.546;10.104;2024-03-07T14:07:53;10.80;99.90
11221;DHT22;8517;53.546;10.104;2024-03-07T14:11:01;10.80;99.90
11221;DHT22;8517;53.546;10.104;2024-03-07T14:13:42;10.70;99.90
11221;DHT22;8517;53.546;10.104;2024-03-07T14:16:42;10.60;99.90
11221;DHT22;8517;53.546;10.104;2024-03-07T14:23:01;10.50;99.90
11221;DHT22;8517;53.546;10.104;2024-03-07T14:25:56;10.50;99.90
11221;DHT22;8517;53.546;10.104;2024-03-07T14:28:53;10.50;99.90
11221;DHT22;8517;53.546;10.104;2024-03-07T14:31:29;10.60;99.90
11221;DHT22;8517;53.546;10.104;2024-03-07T14:34:04;10.70;99.90
11221;DHT22;8517;53.546;10.104;2024-03-07T14:36:37;10.80;99.90
11221;DHT22;8517;53.546;10.104;2024-03-07T14:39:05;10.80;99.90
11221;DHT22;8517;53.546;10.104;2024-03-07T14:41:57;10.90;99.90
11221;DHT22;8517;53.546;10.104;2024-03-07T14:44:27;11.00;99.90
11221;DHT22;8517;53.546;10.104;2024-03-07T14:47:00;11.00;99.90
11221;DHT22;8517;53.546;10.104;2024-03-07T14:49:31;11.00;99.90
11221;DHT22;8517;53.546;10.104;2024-03-07T14:51:58;11.00;99.90
11221;DHT22;8517;53.546;10.104;2024-03-07T14:54:26;11.00;99.90
11221;DHT22;8517;53.546;10.104;2024-03-07T14:56:54;10.90;99.90
11221;DHT22;8517;53.546;10.104;2024-03-07T15:02:46;10.80;99.90
11221;DHT22;8517;53.546;10.104;2024-03-07T15:05:14;10.70;99.90
11221;DHT22;8517;53.546;10.104;2024-03-07T15:07:42;10.70;99.90
11221;DHT22;8517;53.546;10.104;2024-03-07T15:10:17;10.60;99.90
11221;DHT22;8517;53.546;10.104;2024-03-07T15:13:08;10.60;99.90
11221;DHT22;8517;53.546;10.104;2024-03-07T15:15:45;10.50;99.90
11221;DHT22;8517;53.546;10.104;2024-03-07T15:18:33;10.50;99.90
11221;DHT22;8517;53.546;10.104;2024-03-07T15:21:32;10.40;99.90
11221;DHT22;8517;53.546;10.104;2024-03-07T15:24:15;10.40;99.90
11221;DHT22;8517;53.546;10.104;2024-03-07T15:26:48;10.40;99.90
11221;DHT22;8517;53.546;10.104;2024-03-07T15:29:16;10.30;99.90
11221;DHT22;8517;53.546;10.104;2024-03-07T15:31:47;10.30;99.90
11221;DHT22;8517;53.546;10.104;2024-03-07T15:34:22;10.30;99.90
11221;DHT22;8517;53.546;10.104;2024-03-07T15:36:59;10.30;99.90
11221;DHT22;8517;53.546;10.104;2024-03-07T15:39:29;10.30;99.90
11221;DHT22;8517;53.546;10.104;2024-03-07T15:41:56;10.40;99.90
11221;DHT22;8517;53.546;10.104;2024-03-07T15:44:27;10.40;99.90
11221;DHT22;8517;53.546;10.104;2024-03-07T15:46:54;10.40;99.90
11221;DHT22;8517;53.546;10.104;2024-03-07T15:49:30;10.50;99.90
11221;DHT22;8517;53.546;10.104;2024-03-07T15:51:58;10.50;99.90
11221;DHT22;8517;53.546;10.104;2024-03-07T15:54:41;10.50;99.90
11221;DHT22;8517;53.546;10.104;2024-03-07T15:57:10;10.50;99.90
11221;DHT22;8517;53.546;10.104;2024-03-07T15:59:46;10.50;99.90
11221;DHT22;8517;53.546;10.104;2024-03-07T16:02:15;10.50;99.90
11221;DHT22;8517;53.546;10.104;2024-03-07T16:04:45;10.40;99.90
11221;DHT22;8517;53.546;10.104;2024-03-07T16:07:12;10.40;99.90